sensor_id;sensor_type;location;lat;lon;timestamp;pressure;altitude;pressure_sealevel;temperature;humidity
36834;BME280;48003;52.084;5.224;2023-07-31T00:00:20;100980.0;;;18.98;89.93
36834;BME280;48003;52.084;5.224;2023-07-31T00:03:34;100977.0;;;19.05;89.71
36834;BME280;48003;52.084;5.224;2023-07-31T00:05:11;100970.0;;;19.05;90.04
36834;BME280;48003;52.084;5.224;2023-07-31T00:06:48;100978.0;;;19.02;90.35
36834;BME280;48003;52.084;5.224;2023-07-31T00:10:01;100972.0;;;18.97;90.37
36834;BME280;48003;52.084;5.224;2023-07-31T00:11:38;100967.0;;;18.77;92.47
36834;BME280;48003;52.084;5.224;2023-07-31T00:13:15;100965.0;;;18.86;91.82
36834;BME280;48003;52.084;5.224;2023-07-31T00:16:29;100960.0;;;18.68;92.73
36834;BME280;48003;52.084;5.224;2023-07-31T00:18:05;100959.0;;;18.81;92.53
36834;BME280;48003;52.084;5.224;2023-07-31T00:19:43;100958.0;;;18.36;96.55
36834;BME280;48003;52.084;5.224;2023-07-31T00:21:20;100957.0;;;18.45;97.36
36834;BME280;48003;52.084;5.224;2023-07-31T00:24:34;100953.0;;;18.71;96.57
36834;BME280;48003;52.084;5.224;2023-07-31T00:26:11;100959.0;;;18.82;95.94
36834;BME280;48003;52.084;5.224;2023-07-31T00:27:48;100953.0;;;18.84;97.55
36834;BME280;48003;52.084;5.224;2023-07-31T00:31:01;100955.0;;;19.02;96.86
36834;BME280;48003;52.084;5.224;2023-07-31T00:32:38;100950.0;;;18.64;98.78
36834;BME280;48003;52.084;5.224;2023-07-31T00:34:14;100948.0;;;18.62;100.0
36834;BME280;48003;52.084;5.224;2023-07-31T00:35:51;100948.0;;;18.61;100.0
36834;BME280;48003;52.084;5.224;2023-07-31T00:39:05;100949.0;;;18.93;98.94
36834;BME280;48003;52.084;5.224;2023-07-31T00:40:42;100945.0;;;18.95;99.68
36834;BME280;48003;52.084;5.224;2023-07-31T00:42:18;100946.0;;;18.68;100.0
36834;BME280;48003;52.084;5.224;2023-07-31T00:45:32;100956.0;;;18.66;100.0
36834;BME280;48003;52.084;5.224;2023-07-31T00:47:09;100952.0;;;18.78;100.0
36834;BME280;48003;52.084;5.224;2023-07-31T00:48:46;100951.0;;;18.66;100.0
36834;BME280;48003;52.084;5.224;2023-07-31T00:52:01;100951.0;;;18.73;100.0
36834;BME280;48003;52.084;5.224;2023-07-31T00:53:38;100960.0;;;18.61;100.0
36834;BME280;48003;52.084;5.224;2023-07-31T00:55:15;100952.0;;;18.73;100.0
36834;BME280;48003;52.084;5.224;2023-07-31T00:56:53;100945.0;;;18.57;100.0
36834;BME280;48003;52.084;5.224;2023-07-31T01:00:08;100943.0;;;18.7;100.0
36834;BME280;48003;52.084;5.224;2023-07-31T01:01:46;100945.0;;;18.96;100.0
36834;BME280;48003;52.084;5.224;2023-07-31T01:03:23;100946.0;;;18.93;100.0
36834;BME280;48003;52.084;5.224;2023-07-31T01:06:45;100938.0;;;18.66;100.0
36834;BME280;48003;52.084;5.224;2023-07-31T01:08:33;100937.0;;;18.45;100.0
36834;BME280;48003;52.084;5.224;2023-07-31T01:10:27;100950.0;;;18.46;100.0
36834;BME280;48003;52.084;5.224;2023-07-31T01:12:13;100948.0;;;18.54;100.0
36834;BME280;48003;52.084;5.224;2023-07-31T01:13:51;100939.0;;;18.52;100.0
36834;BME280;48003;52.084;5.224;2023-07-31T01:17:04;100940.0;;;18.62;100.0
36834;BME280;48003;52.084;5.224;2023-07-31T01:18:41;100942.0;;;18.75;100.0
36834;BME280;48003;52.084;5.224;2023-07-31T01:20:21;100942.0;;;18.77;100.0
36834;BME280;48003;52.084;5.224;2023-07-31T01:22:12;100956.0;;;18.78;100.0
36834;BME280;48003;52.084;5.224;2023-07-31T01:24:18;100942.0;;;18.75;100.0
36834;BME280;48003;52.084;5.224;2023-07-31T01:26:26;100938.0;;;18.7;100.0
36834;BME280;48003;52.084;5.224;2023-07-31T01:29:56;100942.0;;;18.75;100.0
36834;BME280;48003;52.084;5.224;2023-07-31T01:31:36;100947.0;;;18.87;99.54
36834;BME280;48003;52.084;5.224;2023-07-31T01:33:16;100944.0;;;18.88;99.6
36834;BME280;48003;52.084;5.224;2023-07-31T01:34:53;100947.0;;;18.93;99.99
36834;BME280;48003;52.084;5.224;2023-07-31T01:36:31;100938.0;;;18.55;100.0
36834;BME280;48003;52.084;5.224;2023-07-31T01:39:45;100948.0;;;18.95;100.0
36834;BME280;48003;52.084;5.224;2023-07-31T01:41:22;100948.0;;;18.95;99.39
36834;BME280;48003;52.084;5.224;2023-07-31T01:42:58;100938.0;;;18.66;100.0
36834;BME280;48003;52.084;5.224;2023-07-31T01:46:11;100937.0;;;18.68;100.0
36834;BME280;48003;52.084;5.224;2023-07-31T01:47:48;100945.0;;;18.93;100.0
36834;BME280;48003;52.084;5.224;2023-07-31T01:49:26;100946.0;;;18.87;99.58
36834;BME280;48003;52.084;5.224;2023-07-31T01:52:39;100940.0;;;18.81;100.0
36834;BME280;48003;52.084;5.224;2023-07-31T01:54:16;100946.0;;;18.61;100.0
36834;BME280;48003;52.084;5.224;2023-07-31T01:55:52;100942.0;;;18.57;100.0
36834;BME280;48003;52.084;5.224;2023-07-31T01:57:28;100930.0;;;18.59;100.0
36834;BME280;48003;52.084;5.224;2023-07-31T02:00:42;100930.0;;;18.68;100.0
36834;BME280;48003;52.084;5.224;2023-07-31T02:02:18;100928.0;;;18.36;100.0
36834;BME280;48003;52.084;5.224;2023-07-31T02:03:55;100927.0;;;18.62;100.0
36834;BME280;48003;52.084;5.224;2023-07-31T02:07:10;100918.0;;;18.8;99.05
36834;BME280;48003;52.084;5.224;2023-07-31T02:08:47;100923.0;;;18.61;100.0
36834;BME280;48003;52.084;5.224;2023-07-31T02:10:24;100909.0;;;18.52;100.0
36834;BME280;48003;52.084;5.224;2023-07-31T02:13:37;100907.0;;;18.34;100.0
36834;BME280;48003;52.084;5.224;2023-07-31T02:15:13;100910.0;;;18.8;99.38
36834;BME280;48003;52.084;5.224;2023-07-31T02:16:50;100898.0;;;18.55;99.32
36834;BME280;48003;52.084;5.224;2023-07-31T02:18:27;100896.0;;;18.89;98.0
36834;BME280;48003;52.084;5.224;2023-07-31T02:21:42;100887.0;;;18.91;97.46
36834;BME280;48003;52.084;5.224;2023-07-31T02:23:19;100887.0;;;18.77;98.22
36834;BME280;48003;52.084;5.224;2023-07-31T02:24:55;100885.0;;;18.68;98.48
36834;BME280;48003;52.084;5.224;2023-07-31T02:28:08;100884.0;;;18.73;98.64
36834;BME280;48003;52.084;5.224;2023-07-31T02:29:45;100889.0;;;18.61;98.27
36834;BME280;48003;52.084;5.224;2023-07-31T02:31:22;100886.0;;;18.8;97.57
36834;BME280;48003;52.084;5.224;2023-07-31T02:32:58;100886.0;;;18.73;97.23
36834;BME280;48003;52.084;5.224;2023-07-31T02:36:12;100890.0;;;18.89;97.33
36834;BME280;48003;52.084;5.224;2023-07-31T02:37:49;100888.0;;;18.75;97.54
36834;BME280;48003;52.084;5.224;2023-07-31T02:39:26;100888.0;;;18.87;97.05
36834;BME280;48003;52.084;5.224;2023-07-31T02:42:40;100887.0;;;19.07;95.56
36834;BME280;48003;52.084;5.224;2023-07-31T02:44:16;100885.0;;;18.7;97.53
36834;BME280;48003;52.084;5.224;2023-07-31T02:45:53;100892.0;;;18.57;98.57
36834;BME280;48003;52.084;5.224;2023-07-31T02:49:06;100885.0;;;18.41;100.0
36834;BME280;48003;52.084;5.224;2023-07-31T02:50:42;100878.0;;;18.61;99.31
36834;BME280;48003;52.084;5.224;2023-07-31T02:52:19;100880.0;;;18.75;98.64
36834;BME280;48003;52.084;5.224;2023-07-31T02:53:55;100878.0;;;18.68;97.48
36834;BME280;48003;52.084;5.224;2023-07-31T02:57:09;100882.0;;;18.77;97.96
36834;BME280;48003;52.084;5.224;2023-07-31T02:58:45;100865.0;;;18.59;98.61
36834;BME280;48003;52.084;5.224;2023-07-31T03:00:22;100869.0;;;18.82;96.99
36834;BME280;48003;52.084;5.224;2023-07-31T03:03:36;100873.0;;;18.88;97.08
36834;BME280;48003;52.084;5.224;2023-07-31T03:05:13;100869.0;;;18.59;98.61
36834;BME280;48003;52.084;5.224;2023-07-31T03:06:50;100874.0;;;19.02;96.05
36834;BME280;48003;52.084;5.224;2023-07-31T03:10:04;100869.0;;;18.78;96.25
36834;BME280;48003;52.084;5.224;2023-07-31T03:11:40;100865.0;;;19.2;94.42
36834;BME280;48003;52.084;5.224;2023-07-31T03:13:17;100868.0;;;19.06;94.79
36834;BME280;48003;52.084;5.224;2023-07-31T03:14:55;100871.0;;;18.91;94.89
36834;BME280;48003;52.084;5.224;2023-07-31T03:18:09;100868.0;;;19.02;94.16
36834;BME280;48003;52.084;5.224;2023-07-31T03:19:45;100866.0;;;18.87;95.18
36834;BME280;48003;52.084;5.224;2023-07-31T03:21:21;100866.0;;;18.62;95.5
36834;BME280;48003;52.084;5.224;2023-07-31T03:24:35;100873.0;;;18.68;95.37
36834;BME280;48003;52.084;5.224;2023-07-31T03:26:12;100859.0;;;18.89;95.28
36834;BME280;48003;52.084;5.224;2023-07-31T03:27:49;100866.0;;;18.68;94.34
36834;BME280;48003;52.084;5.224;2023-07-31T03:31:02;100859.0;;;18.77;93.64
36834;BME280;48003;52.084;5.224;2023-07-31T03:32:39;100864.0;;;18.57;94.39
36834;BME280;48003;52.084;5.224;2023-07-31T03:34:15;100865.0;;;18.82;93.45
36834;BME280;48003;52.084;5.224;2023-07-31T03:35:52;100864.0;;;18.95;92.93
36834;BME280;48003;52.084;5.224;2023-07-31T03:39:06;100872.0;;;18.79;92.15
36834;BME280;48003;52.084;5.224;2023-07-31T03:40:43;100859.0;;;18.59;93.57
36834;BME280;48003;52.084;5.224;2023-07-31T03:42:20;100863.0;;;18.84;93.27
36834;BME280;48003;52.084;5.224;2023-07-31T03:45:34;100862.0;;;18.82;91.92
36834;BME280;48003;52.084;5.224;2023-07-31T03:47:11;100851.0;;;18.88;92.31
36834;BME280;48003;52.084;5.224;2023-07-31T03:48:48;100853.0;;;18.95;90.71
36834;BME280;48003;52.084;5.224;2023-07-31T03:50:24;100853.0;;;18.56;93.66
36834;BME280;48003;52.084;5.224;2023-07-31T03:53:38;100849.0;;;19.27;90.12
36834;BME280;48003;52.084;5.224;2023-07-31T03:55:15;100851.0;;;19.2;89.97
36834;BME280;48003;52.084;5.224;2023-07-31T03:56:52;100843.0;;;19.09;90.44
36834;BME280;48003;52.084;5.224;2023-07-31T04:00:06;100850.0;;;19.18;89.41
36834;BME280;48003;52.084;5.224;2023-07-31T04:01:43;100844.0;;;18.87;90.82
36834;BME280;48003;52.084;5.224;2023-07-31T04:03:19;100843.0;;;18.7;92.66
36834;BME280;48003;52.084;5.224;2023-07-31T04:06:33;100838.0;;;18.56;93.82
36834;BME280;48003;52.084;5.224;2023-07-31T04:08:10;100830.0;;;18.72;93.74
36834;BME280;48003;52.084;5.224;2023-07-31T04:09:47;100828.0;;;19.13;89.9
36834;BME280;48003;52.084;5.224;2023-07-31T04:11:23;100830.0;;;18.86;91.37
36834;BME280;48003;52.084;5.224;2023-07-31T04:14:37;100832.0;;;18.66;92.95
36834;BME280;48003;52.084;5.224;2023-07-31T04:16:14;100830.0;;;18.86;91.63
36834;BME280;48003;52.084;5.224;2023-07-31T04:17:51;100817.0;;;18.84;91.46
36834;BME280;48003;52.084;5.224;2023-07-31T04:21:03;100820.0;;;18.77;91.84
36834;BME280;48003;52.084;5.224;2023-07-31T04:22:40;100821.0;;;18.52;92.26
36834;BME280;48003;52.084;5.224;2023-07-31T04:24:18;100811.0;;;18.66;92.51
36834;BME280;48003;52.084;5.224;2023-07-31T04:27:32;100810.0;;;18.88;90.76
36834;BME280;48003;52.084;5.224;2023-07-31T04:29:08;100817.0;;;18.79;91.52
36834;BME280;48003;52.084;5.224;2023-07-31T04:30:46;100820.0;;;18.7;91.69
36834;BME280;48003;52.084;5.224;2023-07-31T04:32:23;100819.0;;;18.28;94.2
36834;BME280;48003;52.084;5.224;2023-07-31T04:35:37;100821.0;;;18.52;94.35
36834;BME280;48003;52.084;5.224;2023-07-31T04:37:13;100824.0;;;18.52;94.06
36834;BME280;48003;52.084;5.224;2023-07-31T04:38:50;100812.0;;;18.29;95.45
36834;BME280;48003;52.084;5.224;2023-07-31T04:42:04;100808.0;;;18.73;93.54
36834;BME280;48003;52.084;5.224;2023-07-31T04:43:40;100815.0;;;18.27;95.45
36834;BME280;48003;52.084;5.224;2023-07-31T04:45:18;100815.0;;;18.25;96.42
36834;BME280;48003;52.084;5.224;2023-07-31T04:46:55;100815.0;;;18.29;95.83
36834;BME280;48003;52.084;5.224;2023-07-31T04:50:09;100815.0;;;18.28;96.54
36834;BME280;48003;52.084;5.224;2023-07-31T04:51:45;100808.0;;;18.36;95.12
36834;BME280;48003;52.084;5.224;2023-07-31T04:53:22;100811.0;;;18.11;97.44
36834;BME280;48003;52.084;5.224;2023-07-31T04:56:35;100810.0;;;18.11;97.07
36834;BME280;48003;52.084;5.224;2023-07-31T04:58:12;100806.0;;;18.34;96.45
36834;BME280;48003;52.084;5.224;2023-07-31T04:59:49;100795.0;;;18.2;97.2
36834;BME280;48003;52.084;5.224;2023-07-31T05:03:02;100795.0;;;17.75;100.0
36834;BME280;48003;52.084;5.224;2023-07-31T05:04:39;100803.0;;;18.05;98.95
36834;BME280;48003;52.084;5.224;2023-07-31T05:06:16;100793.0;;;18.02;97.61
36834;BME280;48003;52.084;5.224;2023-07-31T05:07:53;100792.0;;;18.34;96.76
36834;BME280;48003;52.084;5.224;2023-07-31T05:11:07;100790.0;;;18.27;97.33
36834;BME280;48003;52.084;5.224;2023-07-31T05:12:45;100793.0;;;18.16;98.04
36834;BME280;48003;52.084;5.224;2023-07-31T05:14:22;100802.0;;;18.27;97.12
36834;BME280;48003;52.084;5.224;2023-07-31T05:17:35;100792.0;;;17.93;99.34
36834;BME280;48003;52.084;5.224;2023-07-31T05:19:12;100795.0;;;18.02;99.43
36834;BME280;48003;52.084;5.224;2023-07-31T05:20:49;100796.0;;;17.98;100.0
36834;BME280;48003;52.084;5.224;2023-07-31T05:22:26;100783.0;;;17.98;100.0
36834;BME280;48003;52.084;5.224;2023-07-31T05:25:42;100787.0;;;17.84;100.0
36834;BME280;48003;52.084;5.224;2023-07-31T05:27:19;100789.0;;;17.95;100.0
36834;BME280;48003;52.084;5.224;2023-07-31T05:28:56;100783.0;;;17.96;100.0
36834;BME280;48003;52.084;5.224;2023-07-31T05:32:08;100777.0;;;17.82;100.0
36834;BME280;48003;52.084;5.224;2023-07-31T05:33:45;100775.0;;;18.16;100.0
36834;BME280;48003;52.084;5.224;2023-07-31T05:35:21;100775.0;;;18.32;98.91
36834;BME280;48003;52.084;5.224;2023-07-31T05:38:35;100770.0;;;18.21;99.76
36834;BME280;48003;52.084;5.224;2023-07-31T05:40:12;100765.0;;;18.11;100.0
36834;BME280;48003;52.084;5.224;2023-07-31T05:41:49;100766.0;;;18.05;100.0
36834;BME280;48003;52.084;5.224;2023-07-31T05:43:26;100763.0;;;18.28;99.96
36834;BME280;48003;52.084;5.224;2023-07-31T05:46:42;100760.0;;;18.3;98.88
36834;BME280;48003;52.084;5.224;2023-07-31T05:48:19;100756.0;;;18.45;98.02
36834;BME280;48003;52.084;5.224;2023-07-31T05:49:55;100749.0;;;18.09;99.92
36834;BME280;48003;52.084;5.224;2023-07-31T05:53:08;100746.0;;;17.77;100.0
36834;BME280;48003;52.084;5.224;2023-07-31T05:54:46;100749.0;;;18.11;100.0
36834;BME280;48003;52.084;5.224;2023-07-31T05:56:23;100745.0;;;18.14;100.0
36834;BME280;48003;52.084;5.224;2023-07-31T05:59:37;100741.0;;;18.34;99.0
36834;BME280;48003;52.084;5.224;2023-07-31T06:01:13;100736.0;;;18.06;100.0
36834;BME280;48003;52.084;5.224;2023-07-31T06:02:49;100740.0;;;18.21;100.0
36834;BME280;48003;52.084;5.224;2023-07-31T06:04:27;100745.0;;;18.45;97.69
36834;BME280;48003;52.084;5.224;2023-07-31T06:07:40;100734.0;;;18.0;100.0
36834;BME280;48003;52.084;5.224;2023-07-31T06:09:17;100739.0;;;17.91;100.0
36834;BME280;48003;52.084;5.224;2023-07-31T06:10:53;100734.0;;;18.2;99.81
36834;BME280;48003;52.084;5.224;2023-07-31T06:14:06;100736.0;;;18.41;99.06
36834;BME280;48003;52.084;5.224;2023-07-31T06:15:43;100735.0;;;18.09;100.0
36834;BME280;48003;52.084;5.224;2023-07-31T06:17:20;100728.0;;;18.14;100.0
36834;BME280;48003;52.084;5.224;2023-07-31T06:18:57;100736.0;;;17.86;100.0
36834;BME280;48003;52.084;5.224;2023-07-31T06:22:11;100730.0;;;17.98;100.0
36834;BME280;48003;52.084;5.224;2023-07-31T06:23:48;100730.0;;;18.38;100.0
36834;BME280;48003;52.084;5.224;2023-07-31T06:25:25;100727.0;;;18.37;100.0
36834;BME280;48003;52.084;5.224;2023-07-31T06:28:38;100720.0;;;18.06;100.0
36834;BME280;48003;52.084;5.224;2023-07-31T06:30:15;100716.0;;;18.34;100.0
36834;BME280;48003;52.084;5.224;2023-07-31T06:31:52;100717.0;;;18.45;99.82
36834;BME280;48003;52.084;5.224;2023-07-31T06:35:07;100715.0;;;18.36;100.0
36834;BME280;48003;52.084;5.224;2023-07-31T06:36:44;100712.0;;;18.41;100.0
36834;BME280;48003;52.084;5.224;2023-07-31T06:38:23;100714.0;;;18.34;100.0
36834;BME280;48003;52.084;5.224;2023-07-31T06:40:01;100709.0;;;18.31;100.0
36834;BME280;48003;52.084;5.224;2023-07-31T06:43:15;100705.0;;;18.23;100.0
36834;BME280;48003;52.084;5.224;2023-07-31T06:44:53;100697.0;;;18.48;100.0
36834;BME280;48003;52.084;5.224;2023-07-31T06:46:30;100705.0;;;18.41;100.0
36834;BME280;48003;52.084;5.224;2023-07-31T06:49:43;100689.0;;;18.13;100.0
36834;BME280;48003;52.084;5.224;2023-07-31T06:51:19;100689.0;;;18.28;100.0
36834;BME280;48003;52.084;5.224;2023-07-31T06:52:56;100696.0;;;18.23;100.0
36834;BME280;48003;52.084;5.224;2023-07-31T06:54:32;100689.0;;;17.93;100.0
36834;BME280;48003;52.084;5.224;2023-07-31T06:57:46;100692.0;;;18.38;100.0
36834;BME280;48003;52.084;5.224;2023-07-31T06:59:23;100680.0;;;18.43;100.0
36834;BME280;48003;52.084;5.224;2023-07-31T07:01:00;100680.0;;;18.34;100.0
36834;BME280;48003;52.084;5.224;2023-07-31T07:04:14;100689.0;;;18.29;100.0
36834;BME280;48003;52.084;5.224;2023-07-31T07:05:52;100673.0;;;18.41;100.0
36834;BME280;48003;52.084;5.224;2023-07-31T07:07:29;100680.0;;;18.32;100.0
36834;BME280;48003;52.084;5.224;2023-07-31T07:10:42;100690.0;;;18.27;100.0
36834;BME280;48003;52.084;5.224;2023-07-31T07:12:19;100681.0;;;18.47;100.0
36834;BME280;48003;52.084;5.224;2023-07-31T07:13:56;100675.0;;;18.63;100.0
36834;BME280;48003;52.084;5.224;2023-07-31T07:15:33;100674.0;;;18.41;100.0
36834;BME280;48003;52.084;5.224;2023-07-31T07:18:47;100688.0;;;18.59;100.0
36834;BME280;48003;52.084;5.224;2023-07-31T07:20:24;100681.0;;;18.61;100.0
36834;BME280;48003;52.084;5.224;2023-07-31T07:22:01;100681.0;;;18.45;100.0
36834;BME280;48003;52.084;5.224;2023-07-31T07:25:15;100676.0;;;18.68;100.0
36834;BME280;48003;52.084;5.224;2023-07-31T07:26:52;100681.0;;;18.72;100.0
36834;BME280;48003;52.084;5.224;2023-07-31T07:28:28;100677.0;;;18.54;100.0
36834;BME280;48003;52.084;5.224;2023-07-31T07:30:06;100681.0;;;18.5;100.0
36834;BME280;48003;52.084;5.224;2023-07-31T07:33:20;100677.0;;;18.46;100.0
36834;BME280;48003;52.084;5.224;2023-07-31T07:34:58;100675.0;;;18.52;100.0
36834;BME280;48003;52.084;5.224;2023-07-31T07:36:34;100672.0;;;18.52;100.0
36834;BME280;48003;52.084;5.224;2023-07-31T07:39:50;100675.0;;;18.77;100.0
36834;BME280;48003;52.084;5.224;2023-07-31T07:41:26;100668.0;;;18.64;100.0
36834;BME280;48003;52.084;5.224;2023-07-31T07:43:03;100681.0;;;18.43;100.0
36834;BME280;48003;52.084;5.224;2023-07-31T07:46:17;100692.0;;;18.32;100.0
36834;BME280;48003;52.084;5.224;2023-07-31T07:47:53;100675.0;;;18.52;100.0
36834;BME280;48003;52.084;5.224;2023-07-31T07:49:31;100681.0;;;18.72;100.0
36834;BME280;48003;52.084;5.224;2023-07-31T07:51:08;100671.0;;;18.8;100.0
36834;BME280;48003;52.084;5.224;2023-07-31T07:54:22;100678.0;;;18.81;100.0
36834;BME280;48003;52.084;5.224;2023-07-31T07:55:59;100668.0;;;18.62;100.0
36834;BME280;48003;52.084;5.224;2023-07-31T07:57:36;100659.0;;;18.73;100.0
36834;BME280;48003;52.084;5.224;2023-07-31T08:00:50;100658.0;;;18.64;100.0
36834;BME280;48003;52.084;5.224;2023-07-31T08:02:27;100667.0;;;18.63;100.0
36834;BME280;48003;52.084;5.224;2023-07-31T08:04:04;100665.0;;;18.68;100.0
36834;BME280;48003;52.084;5.224;2023-07-31T08:05:40;100662.0;;;18.7;100.0
36834;BME280;48003;52.084;5.224;2023-07-31T08:08:54;100661.0;;;18.62;100.0
36834;BME280;48003;52.084;5.224;2023-07-31T08:10:31;100661.0;;;18.89;100.0
36834;BME280;48003;52.084;5.224;2023-07-31T08:12:08;100655.0;;;18.78;100.0
36834;BME280;48003;52.084;5.224;2023-07-31T08:15:22;100655.0;;;19.02;100.0
36834;BME280;48003;52.084;5.224;2023-07-31T08:17:00;100647.0;;;18.82;100.0
36834;BME280;48003;52.084;5.224;2023-07-31T08:18:38;100651.0;;;18.87;100.0
36834;BME280;48003;52.084;5.224;2023-07-31T08:20:15;100634.0;;;18.91;100.0
36834;BME280;48003;52.084;5.224;2023-07-31T08:23:29;100642.0;;;18.95;100.0
36834;BME280;48003;52.084;5.224;2023-07-31T08:25:07;100643.0;;;18.91;100.0
36834;BME280;48003;52.084;5.224;2023-07-31T08:26:43;100642.0;;;18.98;100.0
36834;BME280;48003;52.084;5.224;2023-07-31T08:29:58;100640.0;;;19.09;100.0
36834;BME280;48003;52.084;5.224;2023-07-31T08:31:35;100641.0;;;19.0;100.0
36834;BME280;48003;52.084;5.224;2023-07-31T08:33:12;100644.0;;;19.09;100.0
36834;BME280;48003;52.084;5.224;2023-07-31T08:36:26;100639.0;;;19.07;100.0
36834;BME280;48003;52.084;5.224;2023-07-31T08:38:03;100639.0;;;19.37;100.0
36834;BME280;48003;52.084;5.224;2023-07-31T08:39:40;100640.0;;;19.31;100.0
36834;BME280;48003;52.084;5.224;2023-07-31T08:41:17;100644.0;;;19.22;100.0
36834;BME280;48003;52.084;5.224;2023-07-31T08:44:33;100641.0;;;19.18;100.0
36834;BME280;48003;52.084;5.224;2023-07-31T08:46:11;100641.0;;;18.98;100.0
36834;BME280;48003;52.084;5.224;2023-07-31T08:47:50;100638.0;;;19.18;100.0
36834;BME280;48003;52.084;5.224;2023-07-31T08:51:06;100636.0;;;19.03;100.0
36834;BME280;48003;52.084;5.224;2023-07-31T08:52:47;100635.0;;;18.95;100.0
36834;BME280;48003;52.084;5.224;2023-07-31T08:54:24;100652.0;;;19.23;100.0
36834;BME280;48003;52.084;5.224;2023-07-31T08:56:02;100635.0;;;19.05;100.0
36834;BME280;48003;52.084;5.224;2023-07-31T08:59:19;100649.0;;;18.91;100.0
36834;BME280;48003;52.084;5.224;2023-07-31T09:01:01;100637.0;;;18.89;100.0
36834;BME280;48003;52.084;5.224;2023-07-31T09:02:45;100639.0;;;19.03;100.0
36834;BME280;48003;52.084;5.224;2023-07-31T09:04:28;100636.0;;;19.18;100.0
36834;BME280;48003;52.084;5.224;2023-07-31T09:07:45;100637.0;;;19.5;100.0
36834;BME280;48003;52.084;5.224;2023-07-31T09:09:23;100639.0;;;19.39;100.0
36834;BME280;48003;52.084;5.224;2023-07-31T09:11:00;100650.0;;;19.36;100.0
36834;BME280;48003;52.084;5.224;2023-07-31T09:12:38;100639.0;;;19.57;100.0
36834;BME280;48003;52.084;5.224;2023-07-31T09:15:55;100650.0;;;19.45;100.0
36834;BME280;48003;52.084;5.224;2023-07-31T09:17:33;100644.0;;;19.52;100.0
36834;BME280;48003;52.084;5.224;2023-07-31T09:19:10;100635.0;;;19.75;100.0
36834;BME280;48003;52.084;5.224;2023-07-31T09:22:37;100630.0;;;19.66;100.0
36834;BME280;48003;52.084;5.224;2023-07-31T09:24:24;100637.0;;;19.59;100.0
36834;BME280;48003;52.084;5.224;2023-07-31T09:26:02;100623.0;;;19.7;100.0
36834;BME280;48003;52.084;5.224;2023-07-31T09:27:46;100622.0;;;19.87;100.0
36834;BME280;48003;52.084;5.224;2023-07-31T09:29:24;100624.0;;;19.75;100.0
36834;BME280;48003;52.084;5.224;2023-07-31T09:32:38;100641.0;;;19.95;100.0
36834;BME280;48003;52.084;5.224;2023-07-31T09:34:15;100617.0;;;19.7;100.0
36834;BME280;48003;52.084;5.224;2023-07-31T09:35:52;100617.0;;;19.68;100.0
36834;BME280;48003;52.084;5.224;2023-07-31T09:39:09;100615.0;;;19.77;100.0
36834;BME280;48003;52.084;5.224;2023-07-31T09:40:47;100617.0;;;19.7;100.0
36834;BME280;48003;52.084;5.224;2023-07-31T09:42:27;100621.0;;;19.71;100.0
36834;BME280;48003;52.084;5.224;2023-07-31T09:44:03;100622.0;;;19.75;100.0
36834;BME280;48003;52.084;5.224;2023-07-31T09:47:23;100618.0;;;19.61;100.0
36834;BME280;48003;52.084;5.224;2023-07-31T09:49:05;100631.0;;;19.79;100.0
36834;BME280;48003;52.084;5.224;2023-07-31T09:50:48;100624.0;;;19.86;100.0
36834;BME280;48003;52.084;5.224;2023-07-31T09:52:26;100618.0;;;19.62;100.0
36834;BME280;48003;52.084;5.224;2023-07-31T09:55:41;100622.0;;;19.79;100.0
36834;BME280;48003;52.084;5.224;2023-07-31T09:57:21;100622.0;;;19.81;100.0
36834;BME280;48003;52.084;5.224;2023-07-31T09:58:58;100622.0;;;19.53;100.0
36834;BME280;48003;52.084;5.224;2023-07-31T10:02:17;100632.0;;;19.43;100.0
36834;BME280;48003;52.084;5.224;2023-07-31T10:03:57;100618.0;;;19.48;100.0
36834;BME280;48003;52.084;5.224;2023-07-31T10:05:38;100618.0;;;19.59;100.0
36834;BME280;48003;52.084;5.224;2023-07-31T10:07:17;100614.0;;;19.59;100.0
36834;BME280;48003;52.084;5.224;2023-07-31T10:10:35;100616.0;;;19.39;100.0
36834;BME280;48003;52.084;5.224;2023-07-31T10:12:14;100617.0;;;19.46;100.0
36834;BME280;48003;52.084;5.224;2023-07-31T10:13:55;100611.0;;;19.93;100.0
36834;BME280;48003;52.084;5.224;2023-07-31T10:15:32;100617.0;;;19.59;100.0
36834;BME280;48003;52.084;5.224;2023-07-31T10:18:49;100627.0;;;19.64;100.0
36834;BME280;48003;52.084;5.224;2023-07-31T10:20:28;100622.0;;;19.78;100.0
36834;BME280;48003;52.084;5.224;2023-07-31T10:22:06;100621.0;;;19.57;100.0
36834;BME280;48003;52.084;5.224;2023-07-31T10:23:44;100626.0;;;19.52;100.0
36834;BME280;48003;52.084;5.224;2023-07-31T10:27:00;100621.0;;;19.53;100.0
36834;BME280;48003;52.084;5.224;2023-07-31T10:28:39;100630.0;;;19.43;100.0
36834;BME280;48003;52.084;5.224;2023-07-31T10:30:18;100619.0;;;19.52;100.0
36834;BME280;48003;52.084;5.224;2023-07-31T10:33:34;100615.0;;;19.48;100.0
36834;BME280;48003;52.084;5.224;2023-07-31T10:35:11;100610.0;;;19.59;100.0
36834;BME280;48003;52.084;5.224;2023-07-31T10:36:48;100609.0;;;19.84;100.0
36834;BME280;48003;52.084;5.224;2023-07-31T10:38:25;100613.0;;;19.75;100.0
36834;BME280;48003;52.084;5.224;2023-07-31T10:41:41;100612.0;;;19.84;100.0
36834;BME280;48003;52.084;5.224;2023-07-31T10:43:25;100610.0;;;19.86;100.0
36834;BME280;48003;52.084;5.224;2023-07-31T10:45:04;100611.0;;;19.87;100.0
36834;BME280;48003;52.084;5.224;2023-07-31T10:46:45;100612.0;;;19.84;100.0
36834;BME280;48003;52.084;5.224;2023-07-31T10:50:32;100619.0;;;19.8;100.0
36834;BME280;48003;52.084;5.224;2023-07-31T10:52:11;100620.0;;;19.78;100.0
36834;BME280;48003;52.084;5.224;2023-07-31T10:53:48;100620.0;;;19.75;100.0
36834;BME280;48003;52.084;5.224;2023-07-31T10:55:28;100617.0;;;19.75;100.0
36834;BME280;48003;52.084;5.224;2023-07-31T10:59:00;100613.0;;;20.02;100.0
36834;BME280;48003;52.084;5.224;2023-07-31T11:00:39;100614.0;;;19.84;100.0
36834;BME280;48003;52.084;5.224;2023-07-31T11:02:24;100613.0;;;20.07;100.0
36834;BME280;48003;52.084;5.224;2023-07-31T11:04:10;100613.0;;;20.12;100.0